This is the latest recevied weather packets stored in our database for station/object KF6ILA. If no packets are shown the sender has not sent any weather packets the latest 10 day(s).
| Time | Temp. | Humidity | Pressure | Rain* | Wind** | Luminosity | Snow |
|---|---|---|---|---|---|---|---|
| 1787942169 | 33.33° C | 31% | 1018.5 hPa | 0 mm | - | 902 W/m² | - |
| 1787941872 | 32.78° C | 31% | 1018.4 hPa | 0 mm | - | 900 W/m² | - |
| 1787941575 | 32.78° C | 32% | 1018.5 hPa | 0 mm | - | 889 W/m² | - |
| 1787941278 | 32.78° C | 32% | 1018.6 hPa | 0 mm | - | 925 W/m² | - |
| 1787940684 | 32.22° C | 33% | 1018.6 hPa | 0 mm | - | 870 W/m² | - |
| 1787940387 | 32.22° C | 34% | 1018.6 hPa | 0 mm | - | 867 W/m² | - |
| 1787940090 | 31.67° C | 34% | 1018.7 hPa | 0 mm | - | 860 W/m² | - |
| 1787939496 | 31.11° C | 33% | 1018.7 hPa | 0 mm | - | 192 W/m² | - |
| 1787938605 | 32.22° C | 34% | 1018.5 hPa | 0 mm | - | 821 W/m² | - |
| 1787936823 | 31.67° C | 34% | 1018.6 hPa | 0 mm | - | 724 W/m² | - |
| 1787936229 | 31.67° C | 33% | 1018.6 hPa | 0 mm | - | 700 W/m² | - |
| 1787935932 | 31.67° C | 34% | 1018.5 hPa | 0 mm | - | 682 W/m² | - |
| 1787935041 | 31.67° C | 32% | 1018.3 hPa | 0 mm | - | 642 W/m² | - |
| 1787934744 | 31.11° C | 33% | 1018.3 hPa | 0 mm | - | 626 W/m² | - |
| 1787934150 | 31.11° C | 33% | 1018.4 hPa | 0 mm | - | 596 W/m² | - |
| 1787933853 | 31.11° C | 33% | 1018.4 hPa | 0 mm | - | 566 W/m² | - |
| 1787933556 | 31.11° C | 32% | 1018.4 hPa | 0 mm | - | 573 W/m² | - |
| 1787932962 | 31.11° C | 33% | 1018.2 hPa | 0 mm | - | 538 W/m² | - |
| 1787932665 | 31.11° C | 33% | 1018.2 hPa | 0 mm | - | 529 W/m² | - |
| 1787932071 | 30.56° C | 34% | 1018.4 hPa | 0 mm | - | 557 W/m² | - |
| 1787931774 | 30.56° C | 32% | 1018.5 hPa | 0 mm | - | 550 W/m² | - |
| 1787931477 | 30° C | 31% | 1018.4 hPa | 0 mm | - | 497 W/m² | - |
| 1787931180 | 30° C | 32% | 1018.3 hPa | 0 mm | - | 446 W/m² | - |
| 1787930883 | 30° C | 31% | 1018.3 hPa | 0 mm | - | 454 W/m² | - |
| 1787930586 | 29.44° C | 30% | 1018.2 hPa | 0 mm | - | 431 W/m² | - |
* Rain latest hour (hover to see other rain measurements)
** Current wind speed in m/s (hover to see current wind gust speed)